createdAt,value
2018-07-15T00:00:59.383Z,19.25
2018-07-15T00:01:59.345Z,19.26
2018-07-15T00:02:59.306Z,19.25
2018-07-15T00:03:59.301Z,19.25
2018-07-15T00:04:59.242Z,19.23
2018-07-15T00:05:59.206Z,19.23
2018-07-15T00:06:59.164Z,19.19
2018-07-15T00:07:59.119Z,19.22
2018-07-15T00:08:59.088Z,19.07
2018-07-15T00:09:59.069Z,19.21
2018-07-15T00:10:59.011Z,19.10
2018-07-15T00:11:58.976Z,19.00
2018-07-15T00:12:58.941Z,19.04
2018-07-15T00:13:58.932Z,19.07
2018-07-15T00:14:58.862Z,18.99
2018-07-15T00:15:58.828Z,18.92
2018-07-15T00:16:58.796Z,18.81
2018-07-15T00:17:58.757Z,18.69
2018-07-15T00:18:58.717Z,18.70
2018-07-15T00:19:58.694Z,18.70
2018-07-15T00:20:58.643Z,18.70
2018-07-15T00:21:58.601Z,18.63
2018-07-15T00:22:58.561Z,18.73
2018-07-15T00:23:58.537Z,18.65
2018-07-15T00:24:58.516Z,18.66
2018-07-15T00:25:58.458Z,18.72
2018-07-15T00:26:58.428Z,18.75
2018-07-15T00:27:58.377Z,18.73
2018-07-15T00:28:58.339Z,18.76
2018-07-15T00:29:58.339Z,18.70
2018-07-15T00:30:58.271Z,18.82
2018-07-15T00:31:58.227Z,18.72
2018-07-15T00:32:58.188Z,18.72
2018-07-15T00:33:58.151Z,18.78
2018-07-15T00:34:58.118Z,18.70
2018-07-15T00:35:58.107Z,18.70
2018-07-15T00:36:58.048Z,18.75
2018-07-15T00:37:58.009Z,18.67
2018-07-15T00:38:57.981Z,18.70
2018-07-15T00:39:57.927Z,18.70
2018-07-15T00:40:57.917Z,18.60
2018-07-15T00:41:57.853Z,18.58
2018-07-15T00:42:57.816Z,18.65
2018-07-15T00:43:57.788Z,18.62
2018-07-15T00:44:57.750Z,18.45
2018-07-15T00:45:57.732Z,18.48
2018-07-15T00:46:57.668Z,18.51
2018-07-15T00:47:57.639Z,18.51
2018-07-15T00:48:57.601Z,18.54
2018-07-15T00:49:57.564Z,18.51
2018-07-15T00:50:57.525Z,18.52
2018-07-15T00:51:57.503Z,18.52
2018-07-15T00:52:57.443Z,18.51
2018-07-15T00:53:57.407Z,18.48
2018-07-15T00:54:57.371Z,18.44
2018-07-15T00:55:57.336Z,18.44
2018-07-15T00:56:57.325Z,18.42
2018-07-15T00:57:57.266Z,18.35
2018-07-15T00:58:57.229Z,18.36
2018-07-15T00:59:57.181Z,18.35
2018-07-15T01:00:57.144Z,18.32
2018-07-15T01:01:57.142Z,18.36
2018-07-15T01:02:57.075Z,18.27
2018-07-15T01:03:57.030Z,18.27
2018-07-15T01:04:56.995Z,18.33
2018-07-15T01:05:56.963Z,18.32
2018-07-15T01:06:56.919Z,18.21
2018-07-15T01:07:56.911Z,18.27
2018-07-15T01:08:56.850Z,18.18
2018-07-15T01:09:56.813Z,18.21
2018-07-15T01:10:56.777Z,18.23
2018-07-15T01:11:56.736Z,18.25
2018-07-15T01:12:56.717Z,18.05
2018-07-15T01:13:56.657Z,18.03
2018-07-15T01:14:56.619Z,17.99
2018-07-15T01:15:56.591Z,17.96
2018-07-15T01:16:56.549Z,17.92
2018-07-15T01:17:56.534Z,17.90
2018-07-15T01:18:56.472Z,17.89
2018-07-15T01:19:56.441Z,17.82
2018-07-15T01:20:56.405Z,17.87
2018-07-15T01:21:56.365Z,17.92
2018-07-15T01:22:56.369Z,17.84
2018-07-15T01:23:56.284Z,17.82
2018-07-15T01:24:56.247Z,17.71
2018-07-15T01:25:56.208Z,17.81
2018-07-15T01:26:56.172Z,17.77
2018-07-15T01:27:56.139Z,17.70
2018-07-15T01:28:56.121Z,17.78
2018-07-15T01:29:56.065Z,17.78
2018-07-15T01:30:56.025Z,17.86
2018-07-15T01:31:55.981Z,17.79
2018-07-15T01:32:55.944Z,17.78
2018-07-15T01:33:55.934Z,17.74
2018-07-15T01:34:55.876Z,17.68
2018-07-15T01:35:55.831Z,17.68
2018-07-15T01:36:55.794Z,17.66
2018-07-15T01:37:55.759Z,17.66
2018-07-15T01:38:55.745Z,17.62
2018-07-15T01:39:55.688Z,17.71
2018-07-15T01:40:55.649Z,17.77
2018-07-15T01:41:55.621Z,17.68
2018-07-15T01:42:55.584Z,17.70
2018-07-15T01:43:55.527Z,17.78
2018-07-15T01:44:55.514Z,17.78
2018-07-15T01:45:55.455Z,17.90
2018-07-15T01:46:55.419Z,17.92
2018-07-15T01:47:55.386Z,17.93
2018-07-15T01:48:55.349Z,17.86
2018-07-15T01:49:55.325Z,17.82
2018-07-15T01:50:55.268Z,17.81
2018-07-15T01:51:55.236Z,17.78
2018-07-15T01:52:55.197Z,17.72
2018-07-15T01:53:55.156Z,17.74
2018-07-15T01:54:55.154Z,17.70
2018-07-15T01:55:55.079Z,17.71
2018-07-15T01:56:55.041Z,17.68
2018-07-15T01:57:55.002Z,17.64
2018-07-15T01:58:54.965Z,17.66
2018-07-15T01:59:54.957Z,17.68
2018-07-15T02:00:54.894Z,17.58
2018-07-15T02:01:54.858Z,17.72
2018-07-15T02:02:54.819Z,17.56
2018-07-15T02:03:54.783Z,17.48
2018-07-15T02:04:54.767Z,17.41
2018-07-15T02:05:54.710Z,17.40
2018-07-15T02:06:54.672Z,17.41
2018-07-15T02:07:54.623Z,17.30
2018-07-15T02:08:54.589Z,17.30
2018-07-15T02:09:54.553Z,17.30
2018-07-15T02:10:54.533Z,17.30
2018-07-15T02:11:54.477Z,17.22
2018-07-15T02:12:54.453Z,17.21
2018-07-15T02:13:54.401Z,17.21
2018-07-15T02:14:54.369Z,17.12
2018-07-15T02:15:54.344Z,17.15
2018-07-15T02:16:54.282Z,17.19
2018-07-15T02:17:54.248Z,17.14
2018-07-15T02:18:54.209Z,17.12
2018-07-15T02:19:54.184Z,17.03
2018-07-15T02:20:54.162Z,17.01
2018-07-15T02:21:54.096Z,16.97
2018-07-15T02:22:54.055Z,17.11
2018-07-15T02:23:54.026Z,17.03
2018-07-15T02:24:53.997Z,17.15
2018-07-15T02:25:53.978Z,17.18
2018-07-15T02:26:53.912Z,17.25
2018-07-15T02:27:53.869Z,17.31
2018-07-15T02:28:53.831Z,17.31
2018-07-15T02:29:53.793Z,17.38
2018-07-15T02:30:53.782Z,17.40
2018-07-15T02:31:53.726Z,17.40
2018-07-15T02:32:53.692Z,17.48
2018-07-15T02:33:53.650Z,17.49
2018-07-15T02:34:53.612Z,17.44
2018-07-15T02:35:53.586Z,17.51
2018-07-15T02:36:53.742Z,17.34
2018-07-15T02:37:53.500Z,17.36
2018-07-15T02:38:53.456Z,17.31
2018-07-15T02:39:53.418Z,17.25
2018-07-15T02:40:53.400Z,17.30
2018-07-15T02:41:53.339Z,17.21
2018-07-15T02:42:53.299Z,17.11
2018-07-15T02:43:53.270Z,17.04
2018-07-15T02:44:53.228Z,17.01
2018-07-15T02:45:53.218Z,16.97
2018-07-15T02:46:53.151Z,17.01
2018-07-15T02:47:53.121Z,16.86
2018-07-15T02:48:53.082Z,16.83
2018-07-15T02:49:53.034Z,16.93
2018-07-15T02:50:53.018Z,16.81
2018-07-15T02:51:52.964Z,16.75
2018-07-15T02:52:52.925Z,16.81
2018-07-15T02:53:52.884Z,16.68
2018-07-15T02:54:52.844Z,16.67
2018-07-15T02:55:52.835Z,16.67
2018-07-15T02:56:52.771Z,16.52
2018-07-15T02:57:52.738Z,16.45
2018-07-15T02:58:52.702Z,16.45
2018-07-15T02:59:52.655Z,16.49
2018-07-15T03:00:52.639Z,16.48
2018-07-15T03:01:52.577Z,16.35
2018-07-15T03:02:52.543Z,16.48
2018-07-15T03:03:52.508Z,16.42
2018-07-15T03:04:52.474Z,16.35
2018-07-15T03:05:52.452Z,16.38
2018-07-15T03:06:52.396Z,16.21
2018-07-15T03:07:52.358Z,16.09
2018-07-15T03:08:52.309Z,16.05
2018-07-15T03:09:52.280Z,16.11
2018-07-15T03:10:52.270Z,16.04
2018-07-15T03:11:52.197Z,16.05
2018-07-15T03:12:52.156Z,15.94
2018-07-15T03:13:52.124Z,15.89
2018-07-15T03:14:52.081Z,15.89
2018-07-15T03:15:52.072Z,15.80
2018-07-15T03:16:52.012Z,15.69
2018-07-15T03:17:51.982Z,15.74
2018-07-15T03:18:51.941Z,15.67
2018-07-15T03:19:51.891Z,15.74
2018-07-15T03:20:51.879Z,15.68
2018-07-15T03:21:51.815Z,15.62
2018-07-15T03:22:51.775Z,15.64
2018-07-15T03:23:51.744Z,15.60
2018-07-15T03:24:51.706Z,15.59
2018-07-15T03:25:51.662Z,15.59
2018-07-15T03:26:51.642Z,15.65
2018-07-15T03:27:51.590Z,15.43
2018-07-15T03:28:51.552Z,15.53
2018-07-15T03:29:51.515Z,15.57
2018-07-15T03:30:51.475Z,15.56
2018-07-15T03:31:51.459Z,15.53
2018-07-15T03:32:51.393Z,15.57
2018-07-15T03:33:51.353Z,15.46
2018-07-15T03:34:51.316Z,15.47
2018-07-15T03:35:51.283Z,15.46
2018-07-15T03:36:51.249Z,15.46
2018-07-15T03:37:51.227Z,15.43
2018-07-15T03:38:51.172Z,15.38
2018-07-15T03:39:51.128Z,15.36
2018-07-15T03:40:51.085Z,15.36
2018-07-15T03:41:51.059Z,15.35
2018-07-15T03:42:51.044Z,15.36
2018-07-15T03:43:50.970Z,15.39
2018-07-15T03:44:50.930Z,15.36
2018-07-15T03:45:50.892Z,15.36
2018-07-15T03:46:50.854Z,15.39
2018-07-15T03:47:50.848Z,15.39
2018-07-15T03:48:50.788Z,15.39
2018-07-15T03:49:50.744Z,15.35
2018-07-15T03:50:50.706Z,15.36
2018-07-15T03:51:50.661Z,15.36
2018-07-15T03:52:50.622Z,15.29
2018-07-15T03:53:50.607Z,15.29
2018-07-15T03:54:50.548Z,15.35
2018-07-15T03:55:50.513Z,15.38
2018-07-15T03:56:50.477Z,15.32
2018-07-15T03:57:50.427Z,15.39
2018-07-15T03:58:50.411Z,15.38
2018-07-15T03:59:50.363Z,15.29
2018-07-15T04:00:50.338Z,15.32
2018-07-15T04:01:50.280Z,15.32
2018-07-15T04:02:50.244Z,15.32
2018-07-15T04:03:50.224Z,15.31
2018-07-15T04:04:50.158Z,15.35
2018-07-15T04:05:50.130Z,15.38
2018-07-15T04:06:50.093Z,15.35
2018-07-15T04:07:50.054Z,15.49
2018-07-15T04:08:50.045Z,15.53
2018-07-15T04:09:49.990Z,15.60
2018-07-15T04:10:49.928Z,15.60
2018-07-15T04:11:49.896Z,15.64
2018-07-15T04:12:49.857Z,15.57
2018-07-15T04:13:49.819Z,15.59
2018-07-15T04:14:49.795Z,15.65
2018-07-15T04:15:49.743Z,15.64
2018-07-15T04:16:49.704Z,15.54
2018-07-15T04:17:49.666Z,15.64
2018-07-15T04:18:49.629Z,15.49
2018-07-15T04:19:49.609Z,15.56
2018-07-15T04:20:49.541Z,15.57
2018-07-15T04:21:49.504Z,15.59
2018-07-15T04:22:49.467Z,15.44
2018-07-15T04:23:49.432Z,15.54
2018-07-15T04:24:49.421Z,15.57
2018-07-15T04:25:49.357Z,15.62
2018-07-15T04:26:49.317Z,15.53
2018-07-15T04:27:49.278Z,15.57
2018-07-15T04:28:49.235Z,15.50
2018-07-15T04:29:49.203Z,15.47
2018-07-15T04:30:49.186Z,15.57
2018-07-15T04:31:49.123Z,15.49
2018-07-15T04:32:49.081Z,15.53
2018-07-15T04:33:49.040Z,15.47
2018-07-15T04:34:49.003Z,15.44
2018-07-15T04:35:48.992Z,15.46
2018-07-15T04:36:48.934Z,15.51
2018-07-15T04:37:48.931Z,15.49
2018-07-15T04:38:48.857Z,15.59
2018-07-15T04:39:48.811Z,15.53
2018-07-15T04:40:48.797Z,15.62
2018-07-15T04:41:48.734Z,15.67
2018-07-15T04:42:48.696Z,15.71
2018-07-15T04:43:48.674Z,15.83
2018-07-15T04:44:48.624Z,16.21
2018-07-15T04:45:48.578Z,16.88
2018-07-15T04:46:48.564Z,18.05
2018-07-15T04:47:48.508Z,19.31
2018-07-15T04:48:48.469Z,20.21
2018-07-15T04:49:48.433Z,20.99
2018-07-15T04:50:48.396Z,21.75
2018-07-15T04:51:48.372Z,22.36
2018-07-15T04:52:48.316Z,22.76
2018-07-15T04:53:48.275Z,23.35
2018-07-15T04:54:48.238Z,23.61
2018-07-15T04:55:48.204Z,23.90
2018-07-15T04:56:48.194Z,24.18
2018-07-15T04:57:48.131Z,24.34
2018-07-15T04:58:48.096Z,24.57
2018-07-15T04:59:48.050Z,24.85
2018-07-15T05:00:48.015Z,25.09
2018-07-15T05:01:48.011Z,25.30
2018-07-15T05:02:47.950Z,25.50
2018-07-15T05:03:47.904Z,25.87
2018-07-15T05:04:47.875Z,26.18
2018-07-15T05:05:47.839Z,26.37
2018-07-15T05:06:47.800Z,26.54
2018-07-15T05:07:47.794Z,27.10
2018-07-15T05:08:47.738Z,27.24
2018-07-15T05:09:47.703Z,27.46
2018-07-15T05:10:47.673Z,27.70
2018-07-15T05:11:47.624Z,27.81
2018-07-15T05:12:47.615Z,27.96
2018-07-15T05:13:47.557Z,27.81
2018-07-15T05:14:47.527Z,27.62
2018-07-15T05:15:47.497Z,27.51
2018-07-15T05:16:47.462Z,27.82
2018-07-15T05:17:47.452Z,27.82
2018-07-15T05:18:47.390Z,27.96
2018-07-15T05:19:47.362Z,28.14
2018-07-15T05:20:47.329Z,28.17
2018-07-15T05:21:47.297Z,28.17
2018-07-15T05:22:47.265Z,28.18
2018-07-15T05:23:47.242Z,28.24
2018-07-15T05:24:47.191Z,28.29
2018-07-15T05:25:47.157Z,28.54
2018-07-15T05:26:47.122Z,28.71
2018-07-15T05:27:47.099Z,28.76
2018-07-15T05:28:47.084Z,28.68
2018-07-15T05:29:47.025Z,28.74
2018-07-15T05:30:46.999Z,28.61
2018-07-15T05:31:46.959Z,28.76
2018-07-15T05:32:46.927Z,28.59
2018-07-15T05:33:46.929Z,28.44
2018-07-15T05:34:46.959Z,28.74
2018-07-15T05:35:46.828Z,28.67
2018-07-15T05:36:46.798Z,28.64
2018-07-15T05:37:46.765Z,29.02
2018-07-15T05:38:46.733Z,28.76
2018-07-15T05:39:46.728Z,28.93
2018-07-15T05:40:46.676Z,29.19
2018-07-15T05:41:46.649Z,29.27
2018-07-15T05:42:46.615Z,29.19
2018-07-15T05:43:46.571Z,29.34
2018-07-15T05:44:46.563Z,29.41
2018-07-15T05:45:46.508Z,29.70
2018-07-15T05:46:46.481Z,29.94
2018-07-15T05:47:46.451Z,29.79
2018-07-15T05:48:46.422Z,30.38
2018-07-15T05:49:46.406Z,30.65
2018-07-15T05:50:46.351Z,30.64
2018-07-15T05:51:46.381Z,30.94
2018-07-15T05:52:46.291Z,30.88
2018-07-15T05:53:46.262Z,30.97
2018-07-15T05:54:46.256Z,31.26
2018-07-15T05:55:46.193Z,31.69
2018-07-15T05:56:46.161Z,31.58
2018-07-15T05:57:46.129Z,31.36
2018-07-15T05:58:46.100Z,31.47
2018-07-15T05:59:46.073Z,31.93
2018-07-15T06:00:46.066Z,32.18
2018-07-15T06:01:46.013Z,32.15
2018-07-15T06:02:45.982Z,32.10
2018-07-15T06:03:45.943Z,31.93
2018-07-15T06:04:45.913Z,32.04
2018-07-15T06:05:45.913Z,31.99
2018-07-15T06:06:45.856Z,32.15
2018-07-15T06:07:45.825Z,32.44
2018-07-15T06:08:45.791Z,32.70
2018-07-15T06:09:45.758Z,32.57
2018-07-15T06:10:45.791Z,32.51
2018-07-15T06:11:45.702Z,32.38
2018-07-15T06:12:45.677Z,32.62
2018-07-15T06:13:45.643Z,32.70
2018-07-15T06:14:45.612Z,32.70
2018-07-15T06:15:45.578Z,32.74
2018-07-15T06:16:45.564Z,33.15
2018-07-15T06:17:45.516Z,33.06
2018-07-15T06:18:45.484Z,33.31
2018-07-15T06:19:45.486Z,33.29
2018-07-15T06:20:45.434Z,33.41
2018-07-15T06:21:45.437Z,33.29
2018-07-15T06:22:45.417Z,33.00
2018-07-15T06:23:45.341Z,33.06
2018-07-15T06:24:45.310Z,33.00
2018-07-15T06:25:45.283Z,33.04
2018-07-15T06:26:45.279Z,33.42
2018-07-15T06:27:45.215Z,33.35
2018-07-15T06:28:45.187Z,33.45
2018-07-15T06:29:45.159Z,33.42
2018-07-15T06:30:45.127Z,33.34
2018-07-15T06:31:45.113Z,32.70
2018-07-15T06:32:45.095Z,32.77
2018-07-15T06:33:45.047Z,32.62
2018-07-15T06:34:45.024Z,32.85
2018-07-15T06:35:44.980Z,33.19
2018-07-15T06:36:44.954Z,32.88
2018-07-15T06:37:44.950Z,33.16
2018-07-15T06:38:44.904Z,32.85
2018-07-15T06:39:44.864Z,32.33
2018-07-15T06:40:44.834Z,32.38
2018-07-15T06:41:44.805Z,33.23
2018-07-15T06:42:44.801Z,33.11
2018-07-15T06:43:44.754Z,33.31
2018-07-15T06:44:44.727Z,33.60
2018-07-15T06:45:44.701Z,34.06
2018-07-15T06:46:44.667Z,34.13
2018-07-15T06:47:44.658Z,34.21
2018-07-15T06:48:44.611Z,33.97
2018-07-15T06:49:44.573Z,33.44
2018-07-15T06:50:44.545Z,33.15
2018-07-15T06:51:44.522Z,33.32
2018-07-15T06:52:44.493Z,33.57
2018-07-15T06:53:44.478Z,34.12
2018-07-15T06:54:44.434Z,33.93
2018-07-15T06:55:44.409Z,34.47
2018-07-15T06:56:44.379Z,34.47
2018-07-15T06:57:44.351Z,34.53
2018-07-15T06:58:44.342Z,34.47
2018-07-15T06:59:44.285Z,34.52
2018-07-15T07:00:44.255Z,34.43
2018-07-15T07:01:44.230Z,35.00
2018-07-15T07:02:44.199Z,34.37
2018-07-15T07:03:44.202Z,33.56
2018-07-15T07:04:44.151Z,33.93
2018-07-15T07:05:44.117Z,34.13
2018-07-15T07:06:44.090Z,34.13
2018-07-15T07:07:44.164Z,33.97
2018-07-15T07:08:44.029Z,34.32
2018-07-15T07:09:44.031Z,34.78
2018-07-15T07:10:43.975Z,35.04
2018-07-15T07:11:43.939Z,34.66
2018-07-15T07:12:43.916Z,34.72
2018-07-15T07:13:43.886Z,34.34
2018-07-15T07:14:43.878Z,34.64
2018-07-15T07:15:43.834Z,34.88
2018-07-15T07:16:43.813Z,34.37
2018-07-15T07:17:43.773Z,34.10
2018-07-15T07:18:43.749Z,33.16
2018-07-15T07:19:43.740Z,32.94
2018-07-15T07:20:43.684Z,32.97
2018-07-15T07:21:43.658Z,33.31
2018-07-15T07:22:43.625Z,33.65
2018-07-15T07:23:43.605Z,33.82
2018-07-15T07:24:43.579Z,33.81
2018-07-15T07:25:43.572Z,33.51
2018-07-15T07:26:43.511Z,33.86
2018-07-15T07:27:43.490Z,33.39
2018-07-15T07:28:43.495Z,33.87
2018-07-15T07:29:43.439Z,34.47
2018-07-15T07:30:43.431Z,34.64
2018-07-15T07:31:43.369Z,34.17
2018-07-15T07:32:43.342Z,34.50
2018-07-15T07:33:43.312Z,34.81
2018-07-15T07:34:43.287Z,34.77
2018-07-15T07:35:43.293Z,34.27
2018-07-15T07:36:43.235Z,34.81
2018-07-15T07:37:43.209Z,34.53
2018-07-15T07:38:43.239Z,34.58
2018-07-15T07:39:43.144Z,33.69
2018-07-15T07:40:43.121Z,32.97
2018-07-15T07:41:43.119Z,32.35
2018-07-15T07:42:43.069Z,31.46
2018-07-15T07:43:43.033Z,31.26
2018-07-15T07:44:43.007Z,31.70
2018-07-15T07:45:42.984Z,32.06
2018-07-15T07:46:42.978Z,32.23
2018-07-15T07:47:42.927Z,32.04
2018-07-15T07:48:42.897Z,31.36
2018-07-15T07:49:42.871Z,31.31
2018-07-15T07:50:42.849Z,30.92
2018-07-15T07:51:42.834Z,31.17
2018-07-15T07:52:42.778Z,31.48
2018-07-15T07:53:42.750Z,31.16
2018-07-15T07:54:42.723Z,31.38
2018-07-15T07:55:42.703Z,31.80
2018-07-15T07:56:42.702Z,32.18
2018-07-15T07:57:42.641Z,32.08
2018-07-15T07:58:42.609Z,32.22
2018-07-15T07:59:42.593Z,32.50
2018-07-15T08:00:42.563Z,31.99
2018-07-15T08:01:42.537Z,32.14
2018-07-15T08:02:42.531Z,31.61
2018-07-15T08:03:42.469Z,31.34
2018-07-15T08:04:42.444Z,31.44
2018-07-15T08:05:42.414Z,30.94
2018-07-15T08:06:42.387Z,30.95
2018-07-15T08:07:42.428Z,31.50
2018-07-15T08:08:42.340Z,31.96
2018-07-15T08:09:42.311Z,31.92
2018-07-15T08:10:42.281Z,31.69
2018-07-15T08:11:42.250Z,31.25
2018-07-15T08:12:42.253Z,30.92
2018-07-15T08:13:42.200Z,30.94
2018-07-15T08:14:42.171Z,30.53
2018-07-15T08:15:42.138Z,30.58
2018-07-15T08:16:42.111Z,30.20
2018-07-15T08:17:42.083Z,29.85
2018-07-15T08:18:42.082Z,29.87
2018-07-15T08:19:42.039Z,30.35
2018-07-15T08:20:42.007Z,30.65
2018-07-15T08:21:41.989Z,30.88
2018-07-15T08:22:41.965Z,31.43
2018-07-15T08:23:41.939Z,31.23
2018-07-15T08:24:41.889Z,31.02
2018-07-15T08:25:41.863Z,30.88
2018-07-15T08:26:41.836Z,31.23
2018-07-15T08:27:41.815Z,31.12
2018-07-15T08:28:41.836Z,31.20
2018-07-15T08:29:41.756Z,30.84
2018-07-15T08:30:41.727Z,30.89
2018-07-15T08:31:41.709Z,31.31
2018-07-15T08:32:41.688Z,31.26
2018-07-15T08:33:41.655Z,31.26
2018-07-15T08:34:41.650Z,31.20
2018-07-15T08:35:41.595Z,31.10
2018-07-15T08:36:41.568Z,30.99
2018-07-15T08:37:41.541Z,30.82
2018-07-15T08:38:41.518Z,30.80
2018-07-15T08:39:41.521Z,30.84
2018-07-15T08:40:41.525Z,30.84
2018-07-15T08:41:41.444Z,31.17
2018-07-15T08:42:41.418Z,31.38
2018-07-15T08:43:41.381Z,31.35
2018-07-15T08:44:41.355Z,30.86
2018-07-15T08:45:41.362Z,30.83
2018-07-15T08:46:41.312Z,31.14
2018-07-15T08:47:41.275Z,31.12
2018-07-15T08:48:41.250Z,31.23
2018-07-15T08:49:41.232Z,31.66
2018-07-15T08:50:41.225Z,31.47
2018-07-15T08:51:41.186Z,31.57
2018-07-15T08:52:41.153Z,30.65
2018-07-15T08:53:41.130Z,30.69
2018-07-15T08:54:41.105Z,30.83
2018-07-15T08:55:41.093Z,30.58
2018-07-15T08:56:41.044Z,30.99
2018-07-15T08:57:41.020Z,30.88
2018-07-15T08:58:40.996Z,31.20
2018-07-15T08:59:40.973Z,31.31
2018-07-15T09:00:40.974Z,31.35
2018-07-15T09:01:40.914Z,31.35
2018-07-15T09:02:40.891Z,31.14
2018-07-15T09:03:40.870Z,31.28
2018-07-15T09:04:40.847Z,30.80
2018-07-15T09:05:40.826Z,30.53
2018-07-15T09:06:40.817Z,30.73
2018-07-15T09:07:40.762Z,30.61
2018-07-15T09:08:40.743Z,30.95
2018-07-15T09:09:40.715Z,31.16
2018-07-15T09:10:40.691Z,31.35
2018-07-15T09:11:40.691Z,31.21
2018-07-15T09:12:40.693Z,31.13
2018-07-15T09:13:40.620Z,31.26
2018-07-15T09:14:40.592Z,31.44
2018-07-15T09:15:40.560Z,31.38
2018-07-15T09:16:40.561Z,31.04
2018-07-15T09:17:40.520Z,31.58
2018-07-15T09:18:40.491Z,31.85
2018-07-15T09:19:40.460Z,32.03
2018-07-15T09:20:40.439Z,32.40
2018-07-15T09:21:40.467Z,32.40
2018-07-15T09:22:40.410Z,32.23
2018-07-15T09:23:40.366Z,31.14
2018-07-15T09:24:40.341Z,31.01
2018-07-15T09:25:40.320Z,30.76
2018-07-15T09:26:40.298Z,30.88
2018-07-15T09:27:40.281Z,31.25
2018-07-15T09:28:40.236Z,31.46
2018-07-15T09:29:40.214Z,31.50
2018-07-15T09:30:40.194Z,30.91
2018-07-15T09:31:40.178Z,30.76
2018-07-15T09:32:40.174Z,30.46
2018-07-15T09:33:40.115Z,30.58
2018-07-15T09:34:40.093Z,30.79
2018-07-15T09:35:40.093Z,30.27
2018-07-15T09:36:40.048Z,30.38
2018-07-15T09:37:40.029Z,30.72
2018-07-15T09:38:40.021Z,30.42
2018-07-15T09:39:39.972Z,30.37
2018-07-15T09:40:39.945Z,30.05
2018-07-15T09:41:39.921Z,30.27
2018-07-15T09:42:39.894Z,29.58
2018-07-15T09:43:39.901Z,29.65
2018-07-15T09:44:39.852Z,29.86
2018-07-15T09:45:39.829Z,30.02
2018-07-15T09:46:39.802Z,29.97
2018-07-15T09:47:39.772Z,29.89
2018-07-15T09:48:39.770Z,30.10
2018-07-15T09:49:39.728Z,30.29
2018-07-15T09:50:39.708Z,30.53
2018-07-15T09:51:39.674Z,30.64
2018-07-15T09:52:39.647Z,30.80
2018-07-15T09:53:39.646Z,30.58
2018-07-15T09:54:39.594Z,30.62
2018-07-15T09:55:39.578Z,30.57
2018-07-15T09:56:39.552Z,30.38
2018-07-15T09:57:39.527Z,30.26
2018-07-15T09:58:39.505Z,30.13
2018-07-15T09:59:39.496Z,30.23
2018-07-15T10:00:39.446Z,30.26
2018-07-15T10:01:39.419Z,29.97
2018-07-15T10:02:39.401Z,29.97
2018-07-15T10:03:39.399Z,30.02
2018-07-15T10:04:39.377Z,30.38
2018-07-15T10:05:39.323Z,30.43
2018-07-15T10:06:39.304Z,30.49
2018-07-15T10:07:39.376Z,30.49
2018-07-15T10:08:39.277Z,30.29
2018-07-15T10:09:39.227Z,29.98
2018-07-15T10:10:39.203Z,29.95
2018-07-15T10:11:39.175Z,29.89
2018-07-15T10:12:39.150Z,29.97
2018-07-15T10:13:39.144Z,30.10
2018-07-15T10:14:39.114Z,30.60
2018-07-15T10:15:39.079Z,30.58
2018-07-15T10:16:39.059Z,30.34
2018-07-15T10:17:39.036Z,30.02
2018-07-15T10:18:39.022Z,30.47
2018-07-15T10:19:38.975Z,30.43
2018-07-15T10:20:38.948Z,30.64
2018-07-15T10:21:38.930Z,30.58
2018-07-15T10:22:38.906Z,30.76
2018-07-15T10:23:38.899Z,30.82
2018-07-15T10:24:38.854Z,31.13
2018-07-15T10:25:38.824Z,31.48
2018-07-15T10:26:38.870Z,31.88
2018-07-15T10:27:38.785Z,31.26
2018-07-15T10:28:38.782Z,31.35
2018-07-15T10:29:38.739Z,30.89
2018-07-15T10:30:38.714Z,30.43
2018-07-15T10:31:38.683Z,29.83
2018-07-15T10:32:38.657Z,29.46
2018-07-15T10:33:38.651Z,29.00
2018-07-15T10:34:38.606Z,29.09
2018-07-15T10:35:38.606Z,29.42
2018-07-15T10:36:38.563Z,29.58
2018-07-15T10:37:38.560Z,29.73
2018-07-15T10:38:38.510Z,30.16
2018-07-15T10:39:38.489Z,30.29
2018-07-15T10:40:38.466Z,30.54
2018-07-15T10:41:38.443Z,30.64
2018-07-15T10:42:38.445Z,30.76
2018-07-15T10:43:38.384Z,30.88
2018-07-15T10:44:38.421Z,30.99
2018-07-15T10:45:38.345Z,30.99
2018-07-15T10:46:38.314Z,30.98
2018-07-15T10:47:38.323Z,31.04
2018-07-15T10:48:38.271Z,30.86
2018-07-15T10:49:38.251Z,30.82
2018-07-15T10:50:38.218Z,30.88
2018-07-15T10:51:38.189Z,30.86
2018-07-15T10:52:38.192Z,30.91
2018-07-15T10:53:38.152Z,30.82
2018-07-15T10:54:38.123Z,30.55
2018-07-15T10:55:38.090Z,30.45
2018-07-15T10:56:38.077Z,30.60
2018-07-15T10:57:38.066Z,30.34
2018-07-15T10:58:38.027Z,30.54
2018-07-15T10:59:38.002Z,30.54
2018-07-15T11:00:37.977Z,30.24
2018-07-15T11:01:37.953Z,30.26
2018-07-15T11:02:37.960Z,29.71
2018-07-15T11:03:37.900Z,29.92
2018-07-15T11:04:37.876Z,30.13
2018-07-15T11:05:37.852Z,29.89
2018-07-15T11:06:37.829Z,29.85
2018-07-15T11:07:37.828Z,30.08
2018-07-15T11:08:37.797Z,30.07
2018-07-15T11:09:37.757Z,30.13
2018-07-15T11:10:37.728Z,30.22
2018-07-15T11:11:37.709Z,30.23
2018-07-15T11:12:37.712Z,30.34
2018-07-15T11:13:37.657Z,30.20
2018-07-15T11:14:37.639Z,30.34
2018-07-15T11:15:37.602Z,30.60
2018-07-15T11:16:37.616Z,30.55
2018-07-15T11:17:37.573Z,30.23
2018-07-15T11:18:37.533Z,29.68
2018-07-15T11:19:37.524Z,29.06
2018-07-15T11:20:37.493Z,28.93
2018-07-15T11:21:37.468Z,29.02
2018-07-15T11:22:37.465Z,29.26
2018-07-15T11:23:37.410Z,29.49
2018-07-15T11:24:37.383Z,29.71
2018-07-15T11:25:37.368Z,29.83
2018-07-15T11:26:37.337Z,29.95
2018-07-15T11:27:37.333Z,29.97
2018-07-15T11:28:37.282Z,29.89
2018-07-15T11:29:37.255Z,29.76
2018-07-15T11:30:37.241Z,29.89
2018-07-15T11:31:37.215Z,30.15
2018-07-15T11:32:37.221Z,30.05
2018-07-15T11:33:37.166Z,30.20
2018-07-15T11:34:37.146Z,30.16
2018-07-15T11:35:37.119Z,30.10
2018-07-15T11:36:37.086Z,29.92
2018-07-15T11:37:37.083Z,30.04
2018-07-15T11:38:37.039Z,30.05
2018-07-15T11:39:37.016Z,30.10
2018-07-15T11:40:36.992Z,30.20
2018-07-15T11:41:36.965Z,30.34
2018-07-15T11:42:36.957Z,30.34
2018-07-15T11:43:36.919Z,30.43
2018-07-15T11:44:36.891Z,30.57
2018-07-15T11:45:36.877Z,30.43
2018-07-15T11:46:36.845Z,30.42
2018-07-15T11:47:36.834Z,30.23
2018-07-15T11:48:36.792Z,30.17
2018-07-15T11:49:36.764Z,30.11
2018-07-15T11:50:36.733Z,30.23
2018-07-15T11:51:36.719Z,30.35
2018-07-15T11:52:36.725Z,30.51
2018-07-15T11:53:36.666Z,30.55
2018-07-15T11:54:36.717Z,30.72
2018-07-15T11:55:36.613Z,30.70
2018-07-15T11:56:36.585Z,30.84
2018-07-15T11:57:36.595Z,30.79
2018-07-15T11:58:36.552Z,30.64
2018-07-15T11:59:36.511Z,30.65
2018-07-15T12:00:36.485Z,30.72
2018-07-15T12:01:36.469Z,30.60
2018-07-15T12:02:36.456Z,30.53
2018-07-15T12:03:36.420Z,30.45
2018-07-15T12:04:36.399Z,30.54
2018-07-15T12:05:36.370Z,30.64
2018-07-15T12:06:36.352Z,30.60
2018-07-15T12:07:36.333Z,30.53
2018-07-15T12:08:36.293Z,30.55
2018-07-15T12:09:36.263Z,30.43
2018-07-15T12:10:36.239Z,30.43
2018-07-15T12:11:36.223Z,30.55
2018-07-15T12:12:36.224Z,30.77
2018-07-15T12:13:36.164Z,30.84
2018-07-15T12:14:36.141Z,30.62
2018-07-15T12:15:36.122Z,30.42
2018-07-15T12:16:36.119Z,30.47
2018-07-15T12:17:36.082Z,30.35
2018-07-15T12:18:36.051Z,30.22
2018-07-15T12:19:36.024Z,30.23
2018-07-15T12:20:36.001Z,30.35
2018-07-15T12:21:35.963Z,30.35
2018-07-15T12:22:35.965Z,30.35
2018-07-15T12:23:35.922Z,30.31
2018-07-15T12:24:35.893Z,30.22
2018-07-15T12:25:35.870Z,29.97
2018-07-15T12:26:35.842Z,29.82
2018-07-15T12:27:35.838Z,29.97
2018-07-15T12:28:35.789Z,29.95
2018-07-15T12:29:35.768Z,30.02
2018-07-15T12:30:35.739Z,30.11
2018-07-15T12:31:35.712Z,30.23
2018-07-15T12:32:35.750Z,30.13
2018-07-15T12:33:35.656Z,30.08
2018-07-15T12:34:35.633Z,30.01
2018-07-15T12:35:35.613Z,29.92
2018-07-15T12:36:35.634Z,29.98
2018-07-15T12:37:35.557Z,30.00
2018-07-15T12:38:35.544Z,30.02
2018-07-15T12:39:35.507Z,30.00
2018-07-15T12:40:35.485Z,30.07
2018-07-15T12:41:35.452Z,29.52
2018-07-15T12:42:35.447Z,29.52
2018-07-15T12:43:35.506Z,29.60
2018-07-15T12:44:35.379Z,29.58
2018-07-15T12:45:35.347Z,29.36
2018-07-15T12:46:35.343Z,29.19
2018-07-15T12:47:35.301Z,29.09
2018-07-15T12:48:35.274Z,29.06
2018-07-15T12:49:35.250Z,28.90
2018-07-15T12:50:35.222Z,28.67
2018-07-15T12:51:35.211Z,28.44
2018-07-15T12:52:35.159Z,28.55